RPi & Temperatures at JO21ut

Last graph updates: Monday 25 March 2019 13:02 CET

Sunrise: 06:25 & Sunset: 19:00 The Sun is currently visible at an elevation of 39.81 degrees and azimut of 187 and 149208147 Km from the Earth
Moonrise: 24:40 & Moonset: 8:57 Waning Gibbous Moon The Moon is 385630 Km from the Earth
Find here more details on MARS.

13:05:28 up 23 days, 11:51, 0 users, load average: 0.91, 0.66, 0.54
Current CPU frequency is: 1000 Mhz
Current GPU temperature: 28.248°C
Current inside temperature is 18.41°C with a humidity of 62.62%
Second inside temperature is 18.6°C with a pressure of 1019.72 Hpa (29.88 inHg) and an uncorrected altitude of -54.22 m
ds18b20 now showing 18.0°C

All the sensors I use, DHT22 | BMP085 | MPU6050 | BH1750FVI | MMA7455 | HMC5883L | MPL3115A2 | DS1307 | HTU21 | AM2321 | DS3231 | INA219 | LM75A , and it's current readout can be viewed here please be patient as it needs to read all sensors data. The page loads after about 10 seconds. In our forum more details can be found such as the used software/sources. Feel free to add yours also..


Pressure BMP085
Pressure BMP085
Pressure BMP085
Pressure BMP085
PI CPU Temp
Inet Volkel temp
Inside temp BMP085
Humidity BMP085
PI CPU Temp
Inet Volkel temp
Inside temp BMP085
Humidity BMP085
PI CPU Temp
Inet Volkel temp
Inside temp BMP085
Humidity BMP085
PI CPU Temp
Inet Volkel temp
Inside temp BMP085
Humidity BMP085
PI CPU Temp
Inet Volkel temp
Inside temp BMP085
Humidity BMP085
Inside light BH1750FV
Inside light BH1750FV
Inside light BH1750FV
Inside light BH1750FV
Inside light BH1750FV
Inside light BH1750FV
Sunlight hours
 

Sun & Moon height


Wijchen weather

Weer Widget
ScreenSaver yr.no

Sun Moon Earth


EHEH 251155Z AUTO 32017G27KT 260V010 9999 FEW024 09/04 Q1025 REDZ BLU 32015G28KT 9999 SCT035 TEMPO 34020G33KT 4000 SHRA SCT022CB BKN030 EHEH 251155Z AUTO 32017G27KT 260V010 9999 FEW024 09/04 Q1025 REDZ BLU 32015G28KT 9999 SCT035 TEMPO 34020G33KT 4000 SHRA SCT022CB BKN030 EHEH 251155Z AUTO 32017G27KT 260V010 9999 FEW024 09/04 Q1025 REDZ BLU 32015G28KT 9999 SCT035 TEMPO 34020G33KT 4000 SHRA SCT022CB BKN030

Weather data from Volkel [NL] EHVK


11 minutes ago, at 11:55 UTC, the wind was blowing at a speed of 7.7 meters per second (17.3 miles per hour/15 knots), with gusts to 14.4 meters per second (32.2 miles per hour/15 knots), from Northwest (320) in Volkel [EHVK], Netherlands. The temperature was 9 °C (48 °F) with a dewpoint of 4 °C (39 °F), and the pressure was 1,025 hPa (30.27 inHg). The relative humidity was 70.8%. There were a few clouds at a height of 732 meter (2400 feet) and scattered clouds at a height of 1067 meter (3500 feet). The visibility was >10 kilometers (>6.2 miles).




View code:

Contact me  |  My Raspberry PI forum